Arklow Wind — EIKZ — position and weather

sailwx.info

Track history (hours):
 
Tides and Currents Weather Stations Pressure Air Temp Water Temp Dewpoint Dewpoint Depression Visibility Wind Speed Wind Dir Waves Ship Positions

Arklow Wind

Last reported at 2016-Feb-11 08:31 UTC. Time now 2016-Feb-11 08:47 UTC.
Position N 43°20' E 005°21'.

Length 136 m; draft 8.7 m.

Type: Cargo ship. MMSI: 250506000.

Date/timePositionNaut miles runAvg speedWind from/ knotsBaromVisibWave heightAir tempDewpointWater temp
2016-Feb-11 08:31N 43°20' E 005°21'0 0.0
2016-Feb-11 07:28N 43°20' E 005°21'0 0.0
2016-Feb-11 06:16N 43°20' E 005°21'0 0.0
2016-Feb-11 05:25N 43°20' E 005°21'0 0.0
2016-Feb-11 04:22N 43°20' E 005°21'0 0.0
2016-Feb-11 01:16N 43°20' E 005°21'0 0.0
2016-Feb-11 00:22N 43°20' E 005°21'0 0.0
2016-Feb-10 17:16N 43°20' E 005°21'0 0.0
2016-Feb-10 15:24N 43°20' E 005°21'0 0.0
2016-Feb-10 14:27N 43°20' E 005°21'0 0.0
2016-Feb-10 13:27N 43°20' E 005°21'0 0.0
2016-Feb-10 12:27N 43°20' E 005°21'0 0.0
2016-Feb-10 11:30N 43°20' E 005°21'0 0.0
2016-Feb-10 09:33N 43°20' E 005°21'0 0.0
2016-Feb-10 08:24N 43°20' E 005°21'0 0.0
2016-Feb-10 07:33N 43°20' E 005°21'0 0.0
2016-Feb-09 16:18N 43°20' E 005°21'0 0.0
2016-Feb-09 01:08N 43°20' E 005°21'0 0.0
2016-Feb-09 00:32N 43°20' E 005°21'0 0.0
2016-Feb-08 21:29N 43°20' E 005°21'0 0.0
2016-Feb-08 20:17N 43°20' E 005°21'0 0.0
2016-Feb-08 19:29N 43°20' E 005°21'0 0.0
2016-Feb-08 18:23N 43°20' E 005°21'0 0.0
2016-Feb-08 17:32N 43°20' E 005°21'0 0.0
2016-Feb-08 16:32N 43°20' E 005°21'0 0.0
2016-Feb-08 15:32N 43°20' E 005°21'0 0.0
2016-Feb-08 14:32N 43°20' E 005°21'0 0.0
2016-Feb-08 13:26N 43°20' E 005°21'0 0.0
2016-Feb-08 12:32N 43°20' E 005°21'0 0.0
2016-Feb-08 11:32N 43°20' E 005°21'0 0.0
2016-Feb-08 10:32N 43°20' E 005°21'0 0.0
2016-Feb-08 09:32N 43°20' E 005°21'0 0.0
2016-Feb-08 08:14N 43°20' E 005°21'0 0.0
2016-Feb-07 18:14N 43°20' E 005°21'0 0.0
2016-Feb-07 17:26N 43°20' E 005°21'0 0.0
2016-Feb-07 16:32N 43°20' E 005°21'0 0.0
2016-Feb-07 14:32N 43°20' E 005°21'0 0.0
2016-Feb-07 13:20N 43°20' E 005°21'0 0.0
2016-Feb-06 08:30N 43°20' E 005°21'4 4.7
2016-Feb-06 07:33N 43°19' E 005°15'10 9.8
2016-Feb-06 06:30N 43°10' E 005°08'1111.7
2016-Feb-06 05:33N 43°01' E 004°59'1211.6
2016-Feb-06 04:31N 42°52' E 004°49'1010.6
2016-Feb-06 03:33N 42°44' E 004°40'2310.5
2016-Feb-06 01:24N 42°26' E 004°21'911.1
2016-Feb-06 00:32N 42°19' E 004°13'1111.1
2016-Feb-05 23:33N 42°10' E 004°04'1211.2
2016-Feb-05 22:31N 42°01' E 003°54'1111.1
2016-Feb-05 21:33N 41°53' E 003°45'1211.0
2016-Feb-05 20:28N 41°43' E 003°35'1010.9
2016-Feb-05 19:32N 41°35' E 003°27'1110.9
2016-Feb-05 18:33N 41°27' E 003°18'1111.2
2016-Feb-05 17:33N 41°18' E 003°09'1111.3
2016-Feb-05 16:33N 41°09' E 002°59'1111.3
2016-Feb-05 15:33N 41°01' E 002°50'1111.1
2016-Feb-05 14:33N 40°52' E 002°41'1111.2
2016-Feb-05 13:33N 40°43' E 002°32'1111.3
2016-Feb-05 12:34N 40°34' E 002°22'1111.3
2016-Feb-05 11:33N 40°25' E 002°13'1111.3
2016-Feb-05 10:33N 40°16' E 002°04'1111.1
2016-Feb-05 09:33N 40°08' E 001°55'1111.4
2016-Feb-05 08:33N 39°59' E 001°46'1212.0
2016-Feb-05 07:33N 39°49' E 001°36'15612.0
2016-Feb-04 18:33N 37°44' W 000°22'1111.4
2016-Feb-04 17:33N 37°34' W 000°30'1111.0
2016-Feb-04 16:33N 37°27' W 000°40'1110.8
2016-Feb-04 15:33N 37°20' W 000°50'1111.4
2016-Feb-04 14:33N 37°12' W 001°01'21110.9
2016-Feb-03 19:07N 36°00' W 005°09'712.0
2016-Feb-03 18:33N 36°01' W 005°17'7 2.8
2016-Feb-03 16:09N 36°07' W 005°21'0 0.0
2016-Feb-03 13:11N 36°07' W 005°21'2 3.7
2016-Feb-03 12:32N 36°04' W 005°22'1 1.2
2016-Feb-03 11:33N 36°03' W 005°22'9 8.7
2016-Feb-03 10:33N 35°57' W 005°30'12412.3
2016-Feb-03 00:31N 36°18' W 008°01'1111.3
2016-Feb-02 23:33N 36°21' W 008°14'1312.5
2016-Feb-02 22:31N 36°25' W 008°30'1212.2
2016-Feb-02 21:31N 36°28' W 008°44'1111.7
2016-Feb-02 20:34N 36°31' W 008°58'1211.9
2016-Feb-02 19:31N 36°34' W 009°13'1312.0
2016-Feb-02 18:25N 36°42' W 009°26'1211.2
2016-Feb-02 17:22N 36°52' W 009°33'1112.5
2016-Feb-02 16:28N 37°03' W 009°36'1111.8
2016-Feb-02 15:31N 37°14' W 009°40'1313.0
2016-Feb-02 14:31N 37°27' W 009°44'1111.2
2016-Feb-02 13:32N 37°37' W 009°47'1312.0
2016-Feb-02 12:26N 37°50' W 009°50'1412.3
2016-Feb-02 11:15N 38°04' W 009°55'912.3
2016-Feb-02 10:31N 38°13' W 009°58'1212.4
2016-Feb-02 09:32N 38°25' W 010°02'1212.3
2016-Feb-02 08:33N 38°37' W 010°05'1212.1
2016-Feb-02 07:33N 38°49' W 010°07'1212.0
2016-Feb-02 06:33N 39°01' W 010°07'1211.8
2016-Feb-02 05:33N 39°12' W 010°08'1312.9
2016-Feb-02 04:31N 39°26' W 010°09'1211.6
2016-Feb-02 03:31N 39°37' W 010°09'1212.3
2016-Feb-02 02:33N 39°49' W 010°09'1212.2
2016-Feb-02 01:33N 40°02' W 010°10'1413.2
2016-Feb-02 00:30N 40°15' W 010°11'1711.8
2016-Feb-01 23:06N 40°32' W 010°12'812.7
2016-Feb-01 22:30N 40°39' W 010°12'1212.3
2016-Feb-01 21:33N 40°51' W 010°12'1312.3
2016-Feb-01 20:30N 41°04' W 010°13'1212.6
2016-Feb-01 19:31N 41°16' W 010°14'1211.6
2016-Feb-01 18:31N 41°28' W 010°14'1211.6
2016-Feb-01 17:31N 41°40' W 010°14'1211.8
2016-Feb-01 16:28N 41°52' W 010°15'  
Track history (hours):
 
Tides and Currents Weather Stations Pressure Air Temp Water Temp Dewpoint Dewpoint Depression Visibility Wind Speed Wind Dir Waves Ship Positions

Arklow Wind

Last reported at 2016-Feb-11 08:31 UTC. Time now 2016-Feb-11 08:47 UTC.
Position N 43°20' E 005°21'.

Length 136 m; draft 8.7 m.

Type: Cargo ship. MMSI: 250506000.

Date/timePositionNaut miles runAvg speedWind from/ knotsBaromVisibWave heightAir tempDewpointWater temp
2016-Feb-11 08:31N 43°20' E 005°21'0 0.0
2016-Feb-11 07:28N 43°20' E 005°21'0 0.0
2016-Feb-11 06:16N 43°20' E 005°21'0 0.0
2016-Feb-11 05:25N 43°20' E 005°21'0 0.0
2016-Feb-11 04:22N 43°20' E 005°21'0 0.0
2016-Feb-11 01:16N 43°20' E 005°21'0 0.0
2016-Feb-11 00:22N 43°20' E 005°21'0 0.0
2016-Feb-10 17:16N 43°20' E 005°21'0 0.0
2016-Feb-10 15:24N 43°20' E 005°21'0 0.0
2016-Feb-10 14:27N 43°20' E 005°21'0 0.0
2016-Feb-10 13:27N 43°20' E 005°21'0 0.0
2016-Feb-10 12:27N 43°20' E 005°21'0 0.0
2016-Feb-10 11:30N 43°20' E 005°21'0 0.0
2016-Feb-10 09:33N 43°20' E 005°21'0 0.0
2016-Feb-10 08:24N 43°20' E 005°21'0 0.0
2016-Feb-10 07:33N 43°20' E 005°21'0 0.0
2016-Feb-09 16:18N 43°20' E 005°21'0 0.0
2016-Feb-09 01:08N 43°20' E 005°21'0 0.0
2016-Feb-09 00:32N 43°20' E 005°21'0 0.0
2016-Feb-08 21:29N 43°20' E 005°21'0 0.0
2016-Feb-08 20:17N 43°20' E 005°21'0 0.0
2016-Feb-08 19:29N 43°20' E 005°21'0 0.0
2016-Feb-08 18:23N 43°20' E 005°21'0 0.0
2016-Feb-08 17:32N 43°20' E 005°21'0 0.0
2016-Feb-08 16:32N 43°20' E 005°21'0 0.0
2016-Feb-08 15:32N 43°20' E 005°21'0 0.0
2016-Feb-08 14:32N 43°20' E 005°21'0 0.0
2016-Feb-08 13:26N 43°20' E 005°21'0 0.0
2016-Feb-08 12:32N 43°20' E 005°21'0 0.0
2016-Feb-08 11:32N 43°20' E 005°21'0 0.0
2016-Feb-08 10:32N 43°20' E 005°21'0 0.0
2016-Feb-08 09:32N 43°20' E 005°21'0 0.0
2016-Feb-08 08:14N 43°20' E 005°21'0 0.0
2016-Feb-07 18:14N 43°20' E 005°21'0 0.0
2016-Feb-07 17:26N 43°20' E 005°21'0 0.0
2016-Feb-07 16:32N 43°20' E 005°21'0 0.0
2016-Feb-07 14:32N 43°20' E 005°21'0 0.0
2016-Feb-07 13:20N 43°20' E 005°21'0 0.0
2016-Feb-06 08:30N 43°20' E 005°21'4 4.7
2016-Feb-06 07:33N 43°19' E 005°15'10 9.8
2016-Feb-06 06:30N 43°10' E 005°08'1111.7
2016-Feb-06 05:33N 43°01' E 004°59'1211.6
2016-Feb-06 04:31N 42°52' E 004°49'1010.6
2016-Feb-06 03:33N 42°44' E 004°40'2310.5
2016-Feb-06 01:24N 42°26' E 004°21'911.1
2016-Feb-06 00:32N 42°19' E 004°13'1111.1
2016-Feb-05 23:33N 42°10' E 004°04'1211.2
2016-Feb-05 22:31N 42°01' E 003°54'1111.1
2016-Feb-05 21:33N 41°53' E 003°45'1211.0
2016-Feb-05 20:28N 41°43' E 003°35'1010.9
2016-Feb-05 19:32N 41°35' E 003°27'1110.9
2016-Feb-05 18:33N 41°27' E 003°18'1111.2
2016-Feb-05 17:33N 41°18' E 003°09'1111.3
2016-Feb-05 16:33N 41°09' E 002°59'1111.3
2016-Feb-05 15:33N 41°01' E 002°50'1111.1
2016-Feb-05 14:33N 40°52' E 002°41'1111.2
2016-Feb-05 13:33N 40°43' E 002°32'1111.3
2016-Feb-05 12:34N 40°34' E 002°22'1111.3
2016-Feb-05 11:33N 40°25' E 002°13'1111.3
2016-Feb-05 10:33N 40°16' E 002°04'1111.1
2016-Feb-05 09:33N 40°08' E 001°55'1111.4
2016-Feb-05 08:33N 39°59' E 001°46'1212.0
2016-Feb-05 07:33N 39°49' E 001°36'15612.0
2016-Feb-04 18:33N 37°44' W 000°22'1111.4
2016-Feb-04 17:33N 37°34' W 000°30'1111.0
2016-Feb-04 16:33N 37°27' W 000°40'1110.8
2016-Feb-04 15:33N 37°20' W 000°50'1111.4
2016-Feb-04 14:33N 37°12' W 001°01'21110.9
2016-Feb-03 19:07N 36°00' W 005°09'712.0
2016-Feb-03 18:33N 36°01' W 005°17'7 2.8
2016-Feb-03 16:09N 36°07' W 005°21'0 0.0
2016-Feb-03 13:11N 36°07' W 005°21'2 3.7
2016-Feb-03 12:32N 36°04' W 005°22'1 1.2
2016-Feb-03 11:33N 36°03' W 005°22'9 8.7
2016-Feb-03 10:33N 35°57' W 005°30'12412.3
2016-Feb-03 00:31N 36°18' W 008°01'1111.3
2016-Feb-02 23:33N 36°21' W 008°14'1312.5
2016-Feb-02 22:31N 36°25' W 008°30'1212.2
2016-Feb-02 21:31N 36°28' W 008°44'1111.7
2016-Feb-02 20:34N 36°31' W 008°58'1211.9
2016-Feb-02 19:31N 36°34' W 009°13'1312.0
2016-Feb-02 18:25N 36°42' W 009°26'1211.2
2016-Feb-02 17:22N 36°52' W 009°33'1112.5
2016-Feb-02 16:28N 37°03' W 009°36'1111.8
2016-Feb-02 15:31N 37°14' W 009°40'1313.0
2016-Feb-02 14:31N 37°27' W 009°44'1111.2
2016-Feb-02 13:32N 37°37' W 009°47'1312.0
2016-Feb-02 12:26N 37°50' W 009°50'1412.3
2016-Feb-02 11:15N 38°04' W 009°55'912.3
2016-Feb-02 10:31N 38°13' W 009°58'1212.4
2016-Feb-02 09:32N 38°25' W 010°02'1212.3
2016-Feb-02 08:33N 38°37' W 010°05'1212.1
2016-Feb-02 07:33N 38°49' W 010°07'1212.0
2016-Feb-02 06:33N 39°01' W 010°07'1211.8
2016-Feb-02 05:33N 39°12' W 010°08'1312.9
2016-Feb-02 04:31N 39°26' W 010°09'1211.6
2016-Feb-02 03:31N 39°37' W 010°09'1212.3
2016-Feb-02 02:33N 39°49' W 010°09'1212.2
2016-Feb-02 01:33N 40°02' W 010°10'1413.2
2016-Feb-02 00:30N 40°15' W 010°11'1711.8
2016-Feb-01 23:06N 40°32' W 010°12'812.7
2016-Feb-01 22:30N 40°39' W 010°12'1212.3
2016-Feb-01 21:33N 40°51' W 010°12'1312.3
2016-Feb-01 20:30N 41°04' W 010°13'1212.6
2016-Feb-01 19:31N 41°16' W 010°14'1211.6
2016-Feb-01 18:31N 41°28' W 010°14'1211.6
2016-Feb-01 17:31N 41°40' W 010°14'1211.8
2016-Feb-01 16:28N 41°52' W 010°15'  

Dump ship's entire track history